Time;durP1;ratioP1;P1;durP2;ratioP2;P2;SDS_P1;SDS_P2;PMS_P1;PMS_P2;Temp;Humidity;BMP_temperature;BMP_pressure;BME280_temperature;BME280_humidity;BME280_pressure;Samples;Min_cycle;Max_cycle;Signal;HPM_P1;HPM_P2
2023/12/09 00:01:47;;;;;;;3.58;3.10;;;4.20;67.70;;;;;;5016807;28;20041;-75
2023/12/09 00:04:13;;;;;;;3.22;2.92;;;4.20;67.60;;;;;;5016830;28;20021;-76
2023/12/09 00:06:46;;;;;;;3.85;3.00;;;4.20;67.60;;;;;;5017168;28;20033;-77
2023/12/09 00:09:13;;;;;;;3.25;2.95;;;4.20;67.60;;;;;;5035053;28;20029;-75
2023/12/09 00:11:38;;;;;;;3.17;2.88;;;4.20;67.60;;;;;;5034846;28;20042;-76
2023/12/09 00:14:04;;;;;;;3.05;2.80;;;4.20;67.60;;;;;;5034826;28;20037;-77
2023/12/09 00:16:30;;;;;;;3.80;3.42;;;4.20;67.60;;;;;;5034429;28;20029;-77
2023/12/09 00:18:57;;;;;;;3.50;3.20;;;4.20;67.60;;;;;;5034839;28;20510;-76
2023/12/09 00:21:23;;;;;;;3.30;3.00;;;4.20;67.60;;;;;;5017421;28;20026;-79
2023/12/09 00:23:49;;;;;;;3.47;3.00;;;4.20;67.60;;;;;;5034494;28;20056;-76
2023/12/09 00:26:15;;;;;;;3.53;3.22;;;4.20;67.60;;;;;;5034146;28;20021;-76
2023/12/09 00:28:40;;;;;;;3.28;2.97;;;4.20;67.60;;;;;;5034019;28;20042;-77
2023/12/09 00:31:07;;;;;;;3.20;2.90;;;4.20;67.60;;;;;;5034323;28;20025;-75
2023/12/09 00:33:32;;;;;;;3.20;2.85;;;4.20;67.60;;;;;;5034068;28;20025;-77
2023/12/09 00:35:58;;;;;;;3.30;2.83;;;4.20;67.60;;;;;;5034565;28;20467;-77
2023/12/09 00:38:24;;;;;;;3.42;3.13;;;4.20;67.60;;;;;;5016591;28;20029;-76
2023/12/09 00:40:49;;;;;;;3.80;3.40;;;4.20;67.60;;;;;;5034410;28;20029;-76
2023/12/09 00:43:15;;;;;;;3.65;3.28;;;4.20;67.60;;;;;;5015995;28;20044;-76
2023/12/09 00:45:41;;;;;;;3.20;2.90;;;4.20;67.60;;;;;;5033616;28;20032;-75
2023/12/09 00:48:07;;;;;;;3.22;2.92;;;4.10;67.50;;;;;;5033914;28;20108;-76
2023/12/09 00:50:33;;;;;;;3.30;2.92;;;4.10;67.50;;;;;;5034144;28;20065;-75
2023/12/09 00:52:58;;;;;;;3.55;3.25;;;4.10;67.50;;;;;;5033837;28;20030;-77
2023/12/09 00:55:24;;;;;;;3.42;3.13;;;4.10;67.50;;;;;;5015464;28;20061;-76
2023/12/09 00:57:50;;;;;;;3.55;3.10;;;4.20;67.50;;;;;;5033207;28;20105;-76
2023/12/09 01:00:15;;;;;;;3.47;3.17;;;4.20;67.50;;;;;;5016237;28;20029;-76
2023/12/09 01:02:41;;;;;;;4.03;3.10;;;4.20;67.50;;;;;;5016379;28;20034;-76
2023/12/09 01:05:07;;;;;;;3.83;3.15;;;4.10;67.50;;;;;;5034013;28;20025;-76
2023/12/09 01:07:33;;;;;;;3.50;3.20;;;4.10;67.40;;;;;;5015794;28;20030;-76
2023/12/09 01:09:59;;;;;;;3.67;3.35;;;4.10;67.40;;;;;;5033671;28;20033;-76
2023/12/09 01:12:24;;;;;;;3.42;3.13;;;4.20;67.50;;;;;;5016067;28;20032;-78
2023/12/09 01:14:50;;;;;;;3.53;3.22;;;4.20;67.50;;;;;;5033079;28;20486;-76
2023/12/09 01:17:16;;;;;;;3.50;3.20;;;4.20;67.50;;;;;;5033800;28;20029;-76
2023/12/09 01:19:41;;;;;;;3.35;3.05;;;4.10;67.40;;;;;;5015390;28;20034;-77
2023/12/09 01:22:09;;;;;;;3.75;3.30;;;4.20;67.40;;;;;;5033352;28;20034;-76
2023/12/09 01:24:35;;;;;;;3.38;3.08;;;4.20;67.50;;;;;;5033436;28;20021;-76
2023/12/09 01:27:01;;;;;;;3.40;3.10;;;4.10;67.40;;;;;;5033033;28;20026;-77
2023/12/09 01:29:27;;;;;;;3.47;3.17;;;4.20;67.40;;;;;;5033404;28;20526;-77
2023/12/09 01:31:52;;;;;;;3.40;3.10;;;4.10;67.40;;;;;;5033452;28;20096;-77
2023/12/09 01:34:18;;;;;;;3.40;3.10;;;4.20;67.40;;;;;;5032784;28;20033;-76
2023/12/09 01:36:44;;;;;;;3.50;3.20;;;4.10;67.40;;;;;;5033185;28;20057;-79
2023/12/09 01:39:11;;;;;;;4.13;3.53;;;4.10;67.40;;;;;;5033284;28;20099;-75
2023/12/09 01:41:37;;;;;;;3.78;3.42;;;4.10;67.40;;;;;;5014987;28;20026;-76
2023/12/09 01:44:04;;;;;;;4.38;3.58;;;4.10;67.90;;;;;;5014823;28;20080;-75
2023/12/09 01:46:31;;;;;;;3.40;3.10;;;4.10;67.40;;;;;;5033308;28;20049;-76
2023/12/09 01:48:56;;;;;;;3.58;3.28;;;4.10;67.40;;;;;;5033506;28;20025;-76
2023/12/09 01:51:24;;;;;;;3.20;2.90;;;4.10;67.50;;;;;;5033280;28;20052;-76
2023/12/09 01:53:50;;;;;;;3.92;3.28;;;4.10;67.40;;;;;;5032833;28;20033;-76
2023/12/09 01:56:20;;;;;;;3.38;3.08;;;4.10;67.40;;;;;;4999170;28;20025;-75
2023/12/09 01:58:45;;;;;;;3.58;3.28;;;4.10;67.30;;;;;;5015349;28;20120;-75
2023/12/09 02:01:13;;;;;;;3.50;3.20;;;4.10;67.40;;;;;;5015272;28;20053;-76
2023/12/09 02:03:39;;;;;;;3.40;3.10;;;4.10;67.40;;;;;;5033477;28;20052;-77
2023/12/09 02:06:05;;;;;;;3.45;3.15;;;4.10;67.60;;;;;;5033207;28;20025;-75
2023/12/09 02:08:32;;;;;;;3.28;2.97;;;4.10;67.40;;;;;;5033507;28;20076;-75
2023/12/09 02:11:18;;;;;;;3.40;3.10;;;4.10;67.40;;;;;;5032970;28;20052;-76
2023/12/09 02:14:05;;;;;;;3.30;3.00;;;4.10;67.30;;;;;;5018570;28;20404;-77
2023/12/09 02:16:46;;;;;;;3.15;2.85;;;4.10;67.30;;;;;;5032839;28;20045;-77
2023/12/09 02:19:13;;;;;;;3.03;2.75;;;4.10;67.30;;;;;;5014384;28;20029;-76
2023/12/09 02:22:01;;;;;;;3.30;3.00;;;4.10;67.30;;;;;;5033193;28;20033;-76
2023/12/09 02:24:27;;;;;;;3.35;3.05;;;4.10;67.30;;;;;;5032977;28;20060;-76
2023/12/09 02:26:55;;;;;;;3.00;2.72;;;4.10;67.30;;;;;;5033380;28;20033;-76
2023/12/09 02:29:24;;;;;;;3.45;3.15;;;4.10;67.30;;;;;;5032878;28;20152;-79
2023/12/09 02:31:56;;;;;;;3.25;2.95;;;4.10;67.30;;;;;;5032596;28;20018;-76
2023/12/09 02:34:22;;;;;;;3.40;3.10;;;4.10;67.30;;;;;;5015138;28;20030;-76
2023/12/09 02:36:49;;;;;;;3.40;3.10;;;4.10;67.30;;;;;;5032495;28;20060;-77
2023/12/09 02:39:18;;;;;;;3.35;3.00;;;4.10;67.20;;;;;;5032953;28;20502;-75
2023/12/09 02:41:46;;;;;;;3.33;3.03;;;4.10;67.20;;;;;;5032829;28;20376;-76
2023/12/09 02:44:12;;;;;;;3.08;2.80;;;4.10;67.30;;;;;;5032716;28;20032;-76
2023/12/09 02:46:38;;;;;;;4.05;3.60;;;4.10;67.20;;;;;;5032647;28;20033;-77
2023/12/09 02:49:04;;;;;;;3.63;3.30;;;4.10;67.20;;;;;;4995750;28;20507;-76
2023/12/09 02:51:30;;;;;;;3.38;3.08;;;4.10;67.20;;;;;;5011773;28;20064;-77
2023/12/09 02:53:55;;;;;;;3.53;3.22;;;4.10;67.20;;;;;;5017540;28;20017;-76
2023/12/09 02:56:21;;;;;;;4.45;3.53;;;4.10;67.10;;;;;;5033705;28;20057;-76
2023/12/09 02:58:47;;;;;;;3.65;3.10;;;4.10;67.10;;;;;;5018303;28;20286;-76
2023/12/09 03:01:13;;;;;;;3.92;3.50;;;4.10;67.10;;;;;;5036183;28;20030;-76
2023/12/09 03:03:39;;;;;;;3.40;3.10;;;4.10;67.10;;;;;;5035780;28;20044;-77
2023/12/09 03:06:05;;;;;;;4.05;3.47;;;4.10;67.10;;;;;;5035723;28;20026;-76
2023/12/09 03:08:31;;;;;;;3.72;3.30;;;4.10;67.10;;;;;;5036500;28;20025;-76
2023/12/09 03:10:56;;;;;;;4.32;3.38;;;4.10;67.10;;;;;;5017324;28;20030;-75
2023/12/09 03:13:23;;;;;;;3.85;3.28;;;4.10;67.10;;;;;;5017853;28;20475;-76
2023/12/09 03:15:49;;;;;;;3.30;3.00;;;4.00;67.10;;;;;;5035675;28;20052;-77
2023/12/09 03:18:14;;;;;;;3.42;3.00;;;4.00;67.10;;;;;;5018096;28;20021;-76
2023/12/09 03:20:40;;;;;;;3.95;3.47;;;4.00;67.10;;;;;;5035914;28;20092;-77
2023/12/09 03:23:06;;;;;;;3.72;3.42;;;4.10;67.10;;;;;;5001048;28;20450;-75
2023/12/09 03:25:32;;;;;;;3.67;3.33;;;4.00;67.00;;;;;;5035737;28;20060;-76
2023/12/09 03:27:58;;;;;;;3.53;3.08;;;4.00;67.00;;;;;;5017370;28;20037;-76
2023/12/09 03:30:24;;;;;;;4.68;3.55;;;4.00;67.10;;;;;;5017381;28;20045;-76
2023/12/09 03:32:49;;;;;;;3.70;3.30;;;4.00;67.10;;;;;;5034795;28;20021;-76
2023/12/09 03:35:15;;;;;;;3.95;3.40;;;4.00;67.10;;;;;;5035660;28;20033;-75
2023/12/09 03:37:41;;;;;;;3.92;3.53;;;4.00;67.10;;;;;;5035666;28;20033;-76
2023/12/09 03:40:10;;;;;;;4.75;3.63;;;4.00;67.10;;;;;;5035473;28;20387;-76
2023/12/09 03:42:35;;;;;;;3.70;3.28;;;4.00;67.10;;;;;;5034362;28;20055;-78
2023/12/09 03:45:01;;;;;;;4.15;3.45;;;4.00;67.10;;;;;;5018032;28;20113;-76
2023/12/09 03:47:27;;;;;;;4.30;3.50;;;4.00;67.10;;;;;;5017703;28;20213;-77
2023/12/09 03:49:52;;;;;;;3.50;3.20;;;4.00;67.10;;;;;;5034766;28;20049;-76
2023/12/09 03:52:18;;;;;;;4.38;3.33;;;4.00;67.10;;;;;;5034976;28;20041;-76
2023/12/09 03:54:44;;;;;;;3.35;3.05;;;4.00;67.00;;;;;;5036096;28;20052;-76
2023/12/09 03:57:12;;;;;;;4.10;3.47;;;4.00;67.10;;;;;;5035524;28;20035;-77
2023/12/09 03:59:41;;;;;;;4.10;3.30;;;4.00;67.00;;;;;;5034820;28;20037;-77
2023/12/09 04:02:07;;;;;;;3.92;3.47;;;4.00;67.00;;;;;;5016824;28;20030;-75
2023/12/09 04:04:32;;;;;;;4.50;3.55;;;4.00;67.00;;;;;;5034577;28;20060;-76
2023/12/09 04:06:58;;;;;;;3.78;3.33;;;4.00;67.00;;;;;;5035704;28;20029;-77
2023/12/09 04:09:24;;;;;;;4.80;3.58;;;4.00;67.00;;;;;;5016144;28;20558;-75
2023/12/09 04:11:49;;;;;;;3.85;3.40;;;4.00;67.10;;;;;;5034302;28;20121;-76
2023/12/09 04:14:15;;;;;;;3.95;3.45;;;4.00;67.10;;;;;;5035090;28;20044;-75
2023/12/09 04:16:44;;;;;;;3.80;3.30;;;4.00;67.10;;;;;;5035298;28;20057;-76
2023/12/09 04:19:10;;;;;;;3.97;3.40;;;4.00;67.10;;;;;;5035015;28;20040;-76
2023/12/09 04:21:36;;;;;;;4.45;3.70;;;3.90;67.00;;;;;;5034532;28;20025;-76
2023/12/09 04:24:02;;;;;;;3.50;3.00;;;3.90;67.00;;;;;;5034881;28;20052;-77
2023/12/09 04:26:28;;;;;;;3.40;3.10;;;4.00;67.00;;;;;;5034687;28;20116;-76
2023/12/09 04:28:54;;;;;;;4.10;3.63;;;4.00;67.00;;;;;;5034325;28;20124;-76
2023/12/09 04:31:20;;;;;;;4.53;4.07;;;4.00;67.00;;;;;;5034133;28;20033;-76
2023/12/09 04:33:45;;;;;;;5.35;3.80;;;4.00;67.00;;;;;;5033941;28;20414;-77
2023/12/09 04:36:11;;;;;;;3.80;3.22;;;4.00;67.00;;;;;;5016616;28;20025;-76
2023/12/09 04:38:37;;;;;;;3.92;3.50;;;4.00;67.10;;;;;;5034484;28;20645;-73
2023/12/09 04:41:04;;;;;;;3.97;3.30;;;3.90;67.00;;;;;;5033795;28;20467;-73
2023/12/09 04:43:29;;;;;;;4.20;3.63;;;4.00;67.00;;;;;;5033334;28;20051;-74
2023/12/09 04:45:55;;;;;;;4.70;3.40;;;4.00;67.00;;;;;;5034347;28;20464;-74
2023/12/09 04:48:21;;;;;;;4.25;3.53;;;3.90;66.90;;;;;;5035041;28;20446;-74
2023/12/09 04:50:48;;;;;;;3.97;3.40;;;4.00;67.00;;;;;;5033730;28;20057;-73
2023/12/09 04:53:13;;;;;;;4.32;3.45;;;4.00;67.00;;;;;;5034152;28;20033;-73
2023/12/09 04:55:40;;;;;;;3.90;3.35;;;4.00;66.90;;;;;;5017107;28;20076;-75
2023/12/09 04:58:06;;;;;;;4.68;3.80;;;4.00;66.90;;;;;;5034613;28;20025;-74
2023/12/09 05:00:32;;;;;;;4.25;3.60;;;4.00;66.90;;;;;;5034330;28;20132;-74
2023/12/09 05:02:57;;;;;;;5.22;3.92;;;4.00;66.90;;;;;;5033269;28;20435;-74
2023/12/09 05:05:23;;;;;;;4.35;3.67;;;4.00;66.90;;;;;;5017036;28;20030;-74
2023/12/09 05:07:49;;;;;;;4.75;3.78;;;3.90;66.80;;;;;;5033465;28;20047;-73
2023/12/09 05:10:15;;;;;;;4.82;3.90;;;3.90;66.80;;;;;;5016133;28;20040;-74
2023/12/09 05:12:40;;;;;;;4.45;3.67;;;3.90;66.90;;;;;;5033671;28;20029;-74
2023/12/09 05:15:07;;;;;;;4.82;4.00;;;3.90;66.90;;;;;;5015894;28;20168;-75
2023/12/09 05:17:33;;;;;;;4.53;3.80;;;3.90;66.80;;;;;;5034448;28;20152;-75
2023/12/09 05:19:58;;;;;;;5.60;4.38;;;3.90;66.80;;;;;;5033610;28;20104;-75
2023/12/09 05:22:24;;;;;;;4.70;3.97;;;3.90;66.80;;;;;;5034137;28;20034;-75
2023/12/09 05:24:51;;;;;;;4.88;4.07;;;3.90;66.90;;;;;;5033016;28;20056;-74
2023/12/09 05:27:17;;;;;;;5.25;4.25;;;3.90;66.80;;;;;;5033815;28;20036;-74
2023/12/09 05:29:45;;;;;;;5.00;3.95;;;3.90;66.80;;;;;;5033579;28;20033;-75
2023/12/09 05:32:11;;;;;;;4.63;4.05;;;3.90;66.80;;;;;;5033411;28;20026;-74
2023/12/09 05:34:38;;;;;;;5.20;4.07;;;3.90;66.80;;;;;;5014982;28;20041;-74
2023/12/09 05:37:04;;;;;;;5.32;4.20;;;3.90;66.90;;;;;;5033675;28;20379;-75
2023/12/09 05:39:30;;;;;;;5.00;4.05;;;3.90;66.80;;;;;;5015847;28;20034;-75
2023/12/09 05:41:55;;;;;;;4.53;3.78;;;3.90;66.80;;;;;;5015946;28;20026;-74
2023/12/09 05:44:21;;;;;;;4.78;3.97;;;3.90;66.90;;;;;;5033151;28;20029;-74
2023/12/09 05:46:47;;;;;;;5.13;4.00;;;3.90;67.40;;;;;;5033718;28;20026;-75
2023/12/09 05:49:12;;;;;;;5.55;4.30;;;3.90;66.80;;;;;;5015335;28;20037;-76
2023/12/09 05:51:41;;;;;;;5.45;4.07;;;3.90;66.80;;;;;;5015434;28;20411;-75
2023/12/09 05:54:07;;;;;;;5.05;4.22;;;3.90;66.80;;;;;;5049021;28;20399;-74
2023/12/09 05:56:33;;;;;;;4.00;3.38;;;3.90;66.80;;;;;;5033085;28;20029;-75
2023/12/09 05:58:59;;;;;;;4.38;3.92;;;3.90;66.80;;;;;;5014805;28;20047;-74
2023/12/09 06:01:25;;;;;;;5.55;4.22;;;3.90;66.80;;;;;;5012556;28;20025;-75
2023/12/09 06:03:50;;;;;;;4.28;3.83;;;3.90;66.80;;;;;;5032670;28;20056;-75
2023/12/09 06:06:16;;;;;;;5.05;3.83;;;3.90;66.80;;;;;;5013860;28;20025;-75
2023/12/09 06:08:42;;;;;;;4.20;3.70;;;3.90;66.80;;;;;;5031885;28;20072;-75
2023/12/09 06:11:07;;;;;;;5.22;4.07;;;3.90;66.80;;;;;;5032868;28;20040;-80
2023/12/09 06:13:33;;;;;;;7.10;4.45;;;3.90;66.80;;;;;;5015419;28;20029;-77
2023/12/09 06:15:59;;;;;;;5.57;4.50;;;3.90;66.80;;;;;;5015665;28;20032;-75
2023/12/09 06:18:25;;;;;;;4.70;3.85;;;3.90;66.70;;;;;;5013653;28;20034;-74
2023/12/09 06:20:51;;;;;;;5.32;4.07;;;3.90;67.00;;;;;;5032835;28;20018;-73
2023/12/09 06:23:17;;;;;;;4.80;3.90;;;4.00;67.50;;;;;;5013691;28;20034;-70
2023/12/09 06:25:42;;;;;;;4.55;3.70;;;4.10;67.70;;;;;;5032563;28;20025;-77
2023/12/09 06:28:08;;;;;;;5.22;3.95;;;4.10;67.60;;;;;;5032669;28;20021;-74
2023/12/09 06:30:34;;;;;;;5.18;4.05;;;4.10;67.50;;;;;;5031714;28;20148;-75
2023/12/09 06:33:00;;;;;;;5.20;3.80;;;4.20;67.40;;;;;;5001224;28;20084;-74
2023/12/09 06:35:26;;;;;;;4.82;3.55;;;4.20;67.40;;;;;;5035598;28;20057;-77
2023/12/09 06:37:54;;;;;;;4.85;3.85;;;4.20;67.30;;;;;;5018173;28;20056;-73
2023/12/09 06:40:21;;;;;;;4.32;3.70;;;4.20;67.20;;;;;;5040153;28;20036;-72
2023/12/09 06:42:47;;;;;;;6.18;3.72;;;4.20;67.20;;;;;;5036379;28;20072;-77
2023/12/09 06:45:13;;;;;;;4.68;3.80;;;4.30;67.10;;;;;;5015704;28;20026;-74
2023/12/09 06:47:38;;;;;;;5.57;3.80;;;4.30;67.10;;;;;;5019014;28;20028;-78
2023/12/09 06:50:06;;;;;;;4.85;3.53;;;4.30;67.00;;;;;;5017062;28;20041;-74
2023/12/09 06:52:32;;;;;;;5.35;3.90;;;4.30;67.00;;;;;;5015535;28;20030;-81
2023/12/09 06:54:57;;;;;;;5.18;3.80;;;4.30;66.90;;;;;;5025572;28;20108;-81
2023/12/09 06:57:23;;;;;;;4.93;3.63;;;4.30;66.90;;;;;;5027353;28;20030;-79
2023/12/09 06:59:49;;;;;;;5.88;4.57;;;4.30;66.80;;;;;;5039407;28;20056;-78
2023/12/09 07:02:15;;;;;;;4.47;3.63;;;4.40;66.90;;;;;;5042001;28;20032;-81
2023/12/09 07:04:40;;;;;;;5.82;4.47;;;4.40;66.80;;;;;;5046381;28;20025;-83
2023/12/09 07:07:06;;;;;;;4.95;3.97;;;4.40;66.80;;;;;;5041712;28;20030;-88
2023/12/09 07:09:32;;;;;;;5.85;4.60;;;4.40;66.70;;;;;;5018966;28;20118;-81
2023/12/09 07:11:58;;;;;;;5.30;4.38;;;4.40;66.70;;;;;;5018667;28;20037;-76
2023/12/09 07:14:24;;;;;;;5.38;4.22;;;4.50;66.70;;;;;;5035849;28;20036;-75
2023/12/09 07:16:50;;;;;;;6.75;5.15;;;4.50;66.60;;;;;;5035713;28;20487;-77
2023/12/09 07:19:16;;;;;;;5.45;4.30;;;4.40;66.50;;;;;;5016731;28;20037;-74
2023/12/09 07:21:42;;;;;;;6.90;4.68;;;4.40;66.50;;;;;;5017942;28;20040;-77
2023/12/09 07:24:07;;;;;;;6.18;4.10;;;4.40;66.50;;;;;;5036240;28;20164;-70
2023/12/09 07:26:33;;;;;;;5.72;4.40;;;4.50;66.50;;;;;;5035684;28;20112;-75
2023/12/09 07:29:03;;;;;;;5.45;4.07;;;4.50;66.60;;;;;;5017730;28;20091;-71
2023/12/09 07:31:29;;;;;;;6.43;4.78;;;4.50;66.50;;;;;;5017593;28;20115;-71
2023/12/09 07:33:55;;;;;;;4.75;4.10;;;4.60;66.50;;;;;;5035967;28;20475;-77
2023/12/09 07:36:21;;;;;;;5.20;4.00;;;4.60;66.90;;;;;;5017987;28;20109;-76
2023/12/09 07:38:47;;;;;;;6.35;4.40;;;4.60;67.00;;;;;;5035263;28;20034;-74
2023/12/09 07:41:14;;;;;;;5.88;4.30;;;4.60;66.90;;;;;;5015273;28;20176;-84
2023/12/09 07:43:39;;;;;;;5.38;4.00;;;4.70;66.80;;;;;;5017315;28;20028;-74
2023/12/09 07:46:06;;;;;;;4.93;4.13;;;4.70;66.80;;;;;;5035870;28;20029;-76
2023/12/09 07:48:32;;;;;;;5.28;4.07;;;4.70;66.60;;;;;;5035245;28;20088;-76
2023/12/09 07:50:58;;;;;;;6.40;4.68;;;4.70;66.60;;;;;;5035458;28;20463;-77
2023/12/09 07:53:24;;;;;;;6.50;4.75;;;4.80;66.60;;;;;;5034645;28;20408;-77
2023/12/09 07:55:50;;;;;;;7.22;5.18;;;4.80;66.50;;;;;;5015522;28;20083;-76
2023/12/09 07:58:16;;;;;;;7.47;5.10;;;4.80;66.40;;;;;;5016246;28;20025;-76
2023/12/09 08:00:42;;;;;;;6.25;4.88;;;4.80;66.40;;;;;;5034994;28;20379;-76
2023/12/09 08:03:08;;;;;;;6.28;4.20;;;4.80;66.40;;;;;;5033812;28;20092;-86
2023/12/09 08:05:38;;;;;;;6.38;4.60;;;4.90;66.40;;;;;;5016909;28;20056;-79
2023/12/09 08:08:04;;;;;;;7.95;5.45;;;4.90;66.30;;;;;;5034246;28;20021;-77
2023/12/09 08:10:30;;;;;;;6.47;4.28;;;5.00;66.40;;;;;;5014798;28;20047;-78
2023/12/09 08:12:56;;;;;;;6.60;4.60;;;5.00;66.70;;;;;;5033774;28;20053;-79
2023/12/09 08:15:21;;;;;;;6.50;4.63;;;5.20;68.00;;;;;;5034347;28;20026;-77
2023/12/09 08:17:47;;;;;;;6.50;4.80;;;5.30;68.50;;;;;;5016498;28;20490;-78
2023/12/09 08:20:13;;;;;;;5.53;4.13;;;5.40;67.60;;;;;;5034388;28;20105;-80
2023/12/09 08:22:39;;;;;;;6.50;5.32;;;5.50;67.40;;;;;;5034579;28;20025;-79
2023/12/09 08:25:09;;;;;;;6.13;4.40;;;5.50;67.30;;;;;;5034636;28;20050;-78
2023/12/09 08:27:35;;;;;;;6.55;4.97;;;5.50;67.00;;;;;;5017013;28;20067;-78
2023/12/09 08:30:03;;;;;;;5.38;4.15;;;5.60;66.90;;;;;;5017072;28;20038;-77
2023/12/09 08:32:29;;;;;;;5.97;4.75;;;5.60;66.80;;;;;;5017407;28;20025;-77
2023/12/09 08:34:54;;;;;;;6.05;4.82;;;5.60;66.70;;;;;;5034897;28;20033;-78
2023/12/09 08:37:25;;;;;;;7.28;4.97;;;5.60;66.50;;;;;;5016767;28;20029;-78
2023/12/09 08:39:54;;;;;;;6.35;4.53;;;5.50;66.30;;;;;;5034432;28;20084;-77
2023/12/09 08:42:20;;;;;;;7.97;4.78;;;5.50;66.20;;;;;;5016550;28;20068;-79
2023/12/09 08:44:46;;;;;;;6.25;4.32;;;5.50;66.20;;;;;;5016232;28;20047;-78
2023/12/09 08:47:12;;;;;;;5.32;4.53;;;5.50;66.20;;;;;;5034384;28;20518;-80
2023/12/09 08:49:37;;;;;;;6.32;4.90;;;5.50;66.10;;;;;;5033883;28;20133;-78
2023/12/09 08:52:03;;;;;;;6.20;5.07;;;5.50;66.10;;;;;;5034592;28;20033;-77
2023/12/09 08:54:29;;;;;;;6.82;4.78;;;5.40;66.00;;;;;;5033261;28;20430;-79
2023/12/09 08:56:55;;;;;;;6.15;4.68;;;5.50;66.00;;;;;;5013378;28;20424;-77
2023/12/09 08:59:20;;;;;;;7.18;5.28;;;5.50;66.00;;;;;;5014572;28;20456;-79
2023/12/09 09:01:46;;;;;;;7.25;4.88;;;5.50;66.00;;;;;;5031692;28;20113;-78
2023/12/09 09:04:12;;;;;;;5.93;4.70;;;5.50;65.90;;;;;;5016796;28;20029;-78
2023/12/09 09:06:38;;;;;;;5.70;4.60;;;5.40;65.70;;;;;;5017220;28;20029;-78
2023/12/09 09:09:04;;;;;;;6.00;4.90;;;5.50;65.70;;;;;;5034736;28;20038;-78
2023/12/09 09:11:29;;;;;;;6.57;4.78;;;5.40;65.60;;;;;;5033945;28;20375;-78
2023/12/09 09:13:58;;;;;;;6.47;4.65;;;5.50;65.70;;;;;;5033565;28;20391;-77
2023/12/09 09:16:26;;;;;;;6.75;5.00;;;5.50;65.60;;;;;;5015833;28;20037;-77
2023/12/09 09:18:51;;;;;;;8.35;5.28;;;5.50;65.50;;;;;;5015892;28;20036;-78
2023/12/09 09:21:17;;;;;;;6.25;4.43;;;5.50;65.50;;;;;;5015312;28;20037;-78
2023/12/09 09:23:43;;;;;;;7.10;5.30;;;5.50;65.40;;;;;;5016453;28;20030;-77
2023/12/09 09:26:10;;;;;;;5.88;4.70;;;5.50;65.40;;;;;;5015831;28;20418;-78
2023/12/09 09:28:36;;;;;;;6.53;5.45;;;5.50;65.40;;;;;;5033463;28;20506;-76
2023/12/09 09:31:02;;;;;;;7.18;5.18;;;5.40;65.30;;;;;;5033729;28;20033;-77
2023/12/09 09:33:27;;;;;;;6.30;4.97;;;5.40;65.30;;;;;;5034090;28;20029;-80
2023/12/09 09:35:54;;;;;;;7.80;5.32;;;5.40;65.30;;;;;;5016014;28;20029;-77
2023/12/09 09:38:20;;;;;;;7.50;5.43;;;5.40;65.20;;;;;;5033786;28;20030;-78
2023/12/09 09:40:46;;;;;;;6.70;5.30;;;5.40;65.20;;;;;;5033612;28;20060;-77
2023/12/09 09:43:22;;;;;;;8.43;5.50;;;5.40;65.10;;;;;;5033437;28;20072;-77
2023/12/09 09:45:49;;;;;;;6.63;5.00;;;5.40;65.10;;;;;;5034541;28;20037;-77
2023/12/09 09:48:17;;;;;;;7.72;5.57;;;5.40;65.10;;;;;;5033751;28;20029;-78
2023/12/09 09:50:52;;;;;;;7.15;5.35;;;5.40;65.00;;;;;;5015846;28;20057;-78
2023/12/09 09:53:44;;;;;;;6.82;5.25;;;5.40;65.00;;;;;;5015944;28;20029;-77
2023/12/09 09:56:11;;;;;;;7.50;5.28;;;5.40;65.00;;;;;;5015589;28;20036;-77
2023/12/09 09:58:37;;;;;;;7.13;5.07;;;5.40;64.90;;;;;;5015475;28;20036;-78
2023/12/09 10:01:05;;;;;;;6.93;5.15;;;5.40;64.90;;;;;;5015920;28;20025;-78
2023/12/09 10:03:34;;;;;;;6.45;4.60;;;5.40;64.80;;;;;;5015006;28;20053;-77
2023/12/09 10:06:00;;;;;;;7.60;4.95;;;5.50;64.90;;;;;;5017608;28;20029;-78
2023/12/09 10:08:26;;;;;;;6.05;4.90;;;5.50;64.90;;;;;;5019665;28;20030;-78
2023/12/09 10:10:52;;;;;;;5.80;4.40;;;5.50;64.80;;;;;;5037418;28;20113;-78
2023/12/09 10:13:17;;;;;;;6.78;4.97;;;5.50;64.70;;;;;;5019817;28;20459;-78
2023/12/09 10:15:43;;;;;;;6.72;5.03;;;5.60;64.80;;;;;;5037246;28;20105;-78
2023/12/09 10:18:15;;;;;;;5.68;4.38;;;5.50;64.70;;;;;;5018911;28;20033;-79
2023/12/09 10:20:43;;;;;;;6.65;5.22;;;5.50;64.60;;;;;;5036847;28;20022;-78
2023/12/09 10:23:09;;;;;;;6.78;5.07;;;5.60;64.60;;;;;;5019473;28;20048;-78
2023/12/09 10:25:35;;;;;;;8.38;5.80;;;5.60;64.50;;;;;;5037094;28;20104;-78
2023/12/09 10:28:01;;;;;;;7.22;5.45;;;5.60;64.50;;;;;;5036802;28;20037;-78
2023/12/09 10:30:27;;;;;;;6.68;5.25;;;5.50;64.40;;;;;;5019096;28;20111;-78
2023/12/09 10:32:53;;;;;;;8.10;5.65;;;5.50;64.40;;;;;;5018959;28;20587;-77
2023/12/09 10:35:20;;;;;;;6.95;4.97;;;5.50;64.40;;;;;;5019086;28;20112;-78
2023/12/09 10:37:49;;;;;;;7.50;5.65;;;5.50;64.40;;;;;;5019583;28;20094;-78
2023/12/09 10:40:15;;;;;;;6.40;4.95;;;5.50;64.40;;;;;;5018680;28;20399;-79
2023/12/09 10:42:41;;;;;;;7.63;5.45;;;5.60;64.40;;;;;;5036920;28;20022;-79
2023/12/09 10:45:08;;;;;;;9.20;5.60;;;5.60;64.30;;;;;;5036278;28;20026;-80
2023/12/09 10:47:34;;;;;;;6.65;5.13;;;5.60;64.30;;;;;;5036601;28;20030;-77
2023/12/09 10:50:02;;;;;;;7.22;5.45;;;5.60;64.30;;;;;;5036336;28;20060;-79
2023/12/09 10:52:29;;;;;;;6.88;5.10;;;5.60;64.30;;;;;;5018697;28;20034;-77
2023/12/09 10:54:55;;;;;;;6.28;4.80;;;5.60;64.20;;;;;;5036497;28;20053;-79
2023/12/09 10:57:23;;;;;;;7.03;4.95;;;5.60;64.20;;;;;;5017666;28;20044;-77
2023/12/09 10:59:48;;;;;;;6.82;4.85;;;5.60;64.20;;;;;;5018453;28;20025;-77
2023/12/09 11:02:17;;;;;;;6.78;5.03;;;5.60;64.20;;;;;;5036110;28;20032;-78
2023/12/09 11:04:44;;;;;;;7.57;5.50;;;5.60;64.10;;;;;;5038078;28;20049;-78
2023/12/09 11:07:11;;;;;;;6.90;4.65;;;5.60;64.10;;;;;;5036032;28;20471;-76
2023/12/09 11:09:38;;;;;;;6.90;5.15;;;5.60;64.10;;;;;;5036529;28;20037;-78
2023/12/09 11:12:04;;;;;;;7.55;5.20;;;5.60;64.00;;;;;;5036611;28;20029;-78
2023/12/09 11:14:31;;;;;;;6.55;5.10;;;5.60;63.90;;;;;;4998725;28;20026;-78
2023/12/09 11:16:57;;;;;;;6.85;4.85;;;5.60;63.90;;;;;;5030383;28;20029;-78
2023/12/09 11:19:24;;;;;;;7.30;4.95;;;5.50;63.90;;;;;;5014673;28;20045;-78
2023/12/09 11:21:50;;;;;;;6.53;4.88;;;5.50;64.00;;;;;;5018189;28;20521;-78
2023/12/09 11:24:18;;;;;;;8.00;5.10;;;5.50;63.90;;;;;;5036136;28;20025;-76
2023/12/09 11:26:47;;;;;;;6.60;4.88;;;5.50;64.00;;;;;;5018292;28;20028;-78
2023/12/09 11:29:17;;;;;;;6.88;5.35;;;5.50;64.00;;;;;;5018260;28;20029;-78
2023/12/09 11:31:48;;;;;;;6.15;4.80;;;5.50;64.00;;;;;;5018772;28;20430;-76
2023/12/09 11:34:21;;;;;;;5.65;4.43;;;5.40;64.50;;;;;;5018502;28;20026;-76
2023/12/09 11:36:49;;;;;;;7.43;5.53;;;5.40;63.90;;;;;;5018573;28;20463;-76
2023/12/09 11:39:17;;;;;;;7.05;5.40;;;5.40;63.90;;;;;;5017932;28;20160;-77
2023/12/09 11:41:44;;;;;;;7.38;5.20;;;5.40;63.90;;;;;;5035444;28;20040;-77
2023/12/09 11:44:11;;;;;;;6.75;5.07;;;5.40;63.90;;;;;;5017633;28;20033;-78
2023/12/09 11:46:38;;;;;;;6.28;4.70;;;5.40;63.90;;;;;;5035530;28;20032;-78
2023/12/09 11:49:05;;;;;;;6.40;4.72;;;5.30;63.90;;;;;;5035593;28;20045;-78
2023/12/09 11:51:34;;;;;;;6.63;4.53;;;5.30;63.90;;;;;;5035250;28;20046;-77
2023/12/09 11:54:05;;;;;;;8.30;4.65;;;5.30;63.90;;;;;;5031928;28;20032;-76
2023/12/09 11:56:31;;;;;;;6.45;4.70;;;5.20;63.90;;;;;;5015526;28;20033;-78
2023/12/09 11:58:57;;;;;;;6.15;4.82;;;5.20;63.90;;;;;;5016038;28;20021;-78
2023/12/09 12:01:24;;;;;;;6.22;4.65;;;5.20;63.90;;;;;;5015815;28;20053;-77
2023/12/09 12:03:52;;;;;;;6.25;4.50;;;5.20;63.90;;;;;;4999194;28;20036;-78
2023/12/09 12:06:19;;;;;;;6.28;5.00;;;5.10;63.80;;;;;;4982023;28;20038;-78
2023/12/09 12:08:50;;;;;;;4.65;3.70;;;5.10;63.80;;;;;;4997470;28;20395;-78
2023/12/09 12:11:18;;;;;;;4.97;4.03;;;5.10;63.90;;;;;;5019200;28;20053;-78
2023/12/09 12:13:44;;;;;;;6.55;4.53;;;5.10;64.40;;;;;;4983501;28;20085;-79
2023/12/09 12:16:11;;;;;;;6.63;4.78;;;5.10;63.90;;;;;;5015269;28;20472;-78
2023/12/09 12:18:37;;;;;;;5.78;4.25;;;5.00;63.80;;;;;;5015923;28;20143;-78
2023/12/09 12:21:05;;;;;;;6.45;4.97;;;5.00;63.80;;;;;;5021211;28;20109;-78
2023/12/09 12:23:31;;;;;;;5.93;4.43;;;5.00;63.80;;;;;;5029579;28;20025;-77
2023/12/09 12:25:57;;;;;;;5.95;4.63;;;5.00;63.80;;;;;;5034689;28;20146;-79
2023/12/09 12:28:24;;;;;;;6.20;4.80;;;5.00;63.80;;;;;;5014818;28;20428;-77
2023/12/09 12:31:01;;;;;;;6.47;4.70;;;5.00;63.80;;;;;;5024025;28;20114;-78
2023/12/09 12:33:32;;;;;;;5.47;4.40;;;5.00;63.80;;;;;;5016123;28;20044;-78
2023/12/09 12:35:59;;;;;;;5.80;4.60;;;5.00;63.80;;;;;;5034488;28;20037;-78
2023/12/09 12:38:26;;;;;;;6.28;4.88;;;4.90;63.80;;;;;;5015185;28;20044;-79
2023/12/09 12:40:52;;;;;;;5.80;4.55;;;4.90;63.70;;;;;;5016419;28;20038;-80
2023/12/09 12:43:19;;;;;;;6.53;4.63;;;4.90;63.70;;;;;;5015141;28;20045;-78
2023/12/09 12:45:55;;;;;;;5.78;4.55;;;4.90;63.70;;;;;;5011396;28;20476;-77
2023/12/09 12:48:21;;;;;;;6.43;4.75;;;4.90;63.70;;;;;;5004710;28;20072;-77
2023/12/09 12:50:50;;;;;;;5.88;4.30;;;4.80;63.70;;;;;;5034418;28;20053;-78
2023/12/09 12:53:22;;;;;;;6.10;4.75;;;4.80;63.70;;;;;;5034414;28;20422;-77
2023/12/09 12:55:48;;;;;;;5.38;4.15;;;4.80;63.70;;;;;;5022274;28;20034;-80